createdAt,value
2019-04-01T01:56:22.519Z,1022.14
2019-04-01T01:59:14.060Z,1022.18
2019-04-01T02:00:04.862Z,1022.13
2019-04-01T02:01:04.807Z,1022.09
2019-04-01T02:02:05.510Z,1022.07
2019-04-01T02:03:05.600Z,1022.09
2019-04-01T02:04:05.136Z,1022.08
2019-04-01T02:05:05.742Z,1022.13
2019-04-01T02:53:40.745Z,1022.21
2019-04-01T03:15:42.115Z,1022.35
2019-04-01T03:16:42.110Z,1022.31
2019-04-01T03:17:42.112Z,1022.30
2019-04-01T03:18:42.077Z,1022.34
2019-04-01T03:19:54.281Z,1022.37
2019-04-01T03:20:42.745Z,1022.33
2019-04-01T03:21:46.835Z,1022.36
2019-04-01T03:26:15.251Z,1022.33
2019-04-01T03:27:07.330Z,1022.34
2019-04-01T03:28:07.310Z,1022.32
2019-04-01T03:44:40.890Z,1022.26
2019-04-01T03:45:40.782Z,1022.26
2019-04-01T03:46:40.745Z,1022.30
2019-04-01T03:47:40.735Z,1022.26
2019-04-01T03:48:40.765Z,1022.30
2019-04-01T03:49:40.763Z,1022.27
2019-04-01T03:50:41.559Z,1022.26
2019-04-01T04:10:46.500Z,1022.30
2019-04-01T04:19:50.271Z,1022.35
2019-04-01T04:20:50.230Z,1022.34
2019-04-01T04:21:50.197Z,1022.34
2019-04-01T04:22:50.196Z,1022.35
2019-04-01T04:23:50.154Z,1022.38
2019-04-01T04:24:50.158Z,1022.41
2019-04-01T04:25:50.159Z,1022.33
2019-04-01T04:26:50.124Z,1022.42
2019-04-01T04:27:50.126Z,1022.38
2019-04-01T04:28:50.153Z,1022.42
2019-04-01T04:29:50.240Z,1022.45
2019-04-01T04:30:50.192Z,1022.48
2019-04-01T04:31:50.077Z,1022.49
2019-04-01T04:32:50.065Z,1022.45
2019-04-01T04:33:50.086Z,1022.46
2019-04-01T04:34:50.054Z,1022.48
2019-04-01T04:35:50.058Z,1022.48
2019-04-01T04:36:50.033Z,1022.47
2019-04-01T04:37:50.037Z,1022.52
2019-04-01T04:38:50.005Z,1022.44
2019-04-01T04:39:49.995Z,1022.40
2019-04-01T04:40:50.007Z,1022.44
2019-04-01T04:41:49.973Z,1022.44
2019-04-01T04:42:49.981Z,1022.45
2019-04-01T04:43:49.950Z,1022.45
2019-04-01T04:44:49.943Z,1022.45
2019-04-01T04:45:49.955Z,1022.45
2019-04-01T04:46:49.920Z,1022.43
2019-04-01T04:47:49.912Z,1022.44
2019-04-01T04:48:49.903Z,1022.42
2019-04-01T04:49:49.887Z,1022.54
2019-04-01T04:50:49.890Z,1022.53
2019-04-01T04:51:49.867Z,1022.50
2019-04-01T04:52:49.857Z,1022.57
2019-04-01T04:53:49.847Z,1022.53
2019-04-01T04:54:49.843Z,1022.51
2019-04-01T04:55:49.839Z,1022.56
2019-04-01T04:56:49.814Z,1022.57
2019-04-01T04:57:49.805Z,1022.64
2019-04-01T04:58:49.794Z,1022.62
2019-04-01T04:59:49.787Z,1022.65
2019-04-01T05:00:49.786Z,1022.59
2019-04-01T05:01:49.764Z,1022.57
2019-04-01T05:02:49.756Z,1022.56
2019-04-01T05:03:49.743Z,1022.55
2019-04-01T05:04:49.734Z,1022.48
2019-04-01T05:05:49.734Z,1022.51
2019-04-01T05:06:49.725Z,1022.56
2019-04-01T05:07:49.702Z,1022.56
2019-04-01T05:08:49.693Z,1022.53
2019-04-01T05:09:49.681Z,1022.59
2019-04-01T05:10:49.683Z,1022.60
2019-04-01T05:11:49.662Z,1022.60
2019-04-01T05:12:49.654Z,1022.64
2019-04-01T05:13:49.642Z,1022.64
2019-04-01T05:14:49.630Z,1022.64
2019-04-01T05:15:49.622Z,1022.64
2019-04-01T05:16:49.624Z,1022.64
2019-04-01T05:17:49.600Z,1022.64
2019-04-01T05:18:49.591Z,1022.70
2019-04-01T05:19:49.579Z,1022.68
2019-04-01T05:20:49.568Z,1022.70
2019-04-01T05:21:49.568Z,1022.71
2019-04-01T05:22:49.550Z,1022.77
2019-04-01T05:23:49.537Z,1022.77
2019-04-01T05:24:49.531Z,1022.80
2019-04-01T05:25:49.518Z,1022.79
2019-04-01T05:26:49.517Z,1022.81
2019-04-01T05:27:49.504Z,1022.83
2019-04-01T05:28:49.487Z,1022.77
2019-04-01T05:29:49.476Z,1022.82
2019-04-01T05:30:49.471Z,1022.80
2019-04-01T05:31:49.464Z,1022.83
2019-04-01T05:32:49.450Z,1022.89
2019-04-01T05:33:55.717Z,1022.89
2019-04-01T05:34:50.428Z,1022.88
2019-04-01T05:35:49.415Z,1022.90
2019-04-01T05:36:49.413Z,1022.86
2019-04-01T05:37:49.395Z,1022.82
2019-04-01T05:38:49.382Z,1022.80
2019-04-01T05:39:49.373Z,1022.81
2019-04-01T05:40:49.364Z,1022.83
2019-04-01T05:41:49.367Z,1022.83
2019-04-01T05:42:49.346Z,1022.87
2019-04-01T05:43:49.332Z,1022.86
2019-04-01T05:44:49.322Z,1022.85
2019-04-01T05:45:49.313Z,1022.93
2019-04-01T05:46:49.311Z,1022.84
2019-04-01T05:47:49.292Z,1022.91
2019-04-01T05:48:49.360Z,1022.94
2019-04-01T05:49:49.269Z,1022.94
2019-04-01T05:50:49.258Z,1022.98
2019-04-01T05:51:49.257Z,1022.91
2019-04-01T05:52:49.237Z,1022.95
2019-04-01T05:53:49.229Z,1022.89
2019-04-01T05:54:49.224Z,1022.94
2019-04-01T05:55:49.205Z,1022.97
2019-04-01T05:56:49.204Z,1023.03
2019-04-01T05:57:49.184Z,1022.99
2019-04-01T05:58:49.173Z,1023.00
2019-04-01T05:59:49.169Z,1022.97
2019-04-01T06:00:49.153Z,1023.02
2019-04-01T06:01:49.151Z,1023.08
2019-04-01T06:02:49.131Z,1023.08
2019-04-01T06:03:49.121Z,1023.10
2019-04-01T06:04:49.115Z,1023.06
2019-04-01T06:05:49.104Z,1023.05
2019-04-01T06:06:49.174Z,1023.08
2019-04-01T06:07:49.079Z,1023.13
2019-04-01T06:08:49.069Z,1023.15
2019-04-01T06:09:49.057Z,1023.12
2019-04-01T06:10:49.047Z,1023.08
2019-04-01T06:11:49.045Z,1023.14
2019-04-01T06:12:49.025Z,1023.26
2019-04-01T06:13:49.091Z,1023.31
2019-04-01T06:14:49.004Z,1023.29
2019-04-01T06:15:48.994Z,1023.27
2019-04-01T06:16:48.992Z,1023.26
2019-04-01T06:17:48.977Z,1023.26
2019-04-01T06:18:48.960Z,1023.28
2019-04-01T06:19:48.951Z,1023.33
2019-04-01T06:20:48.941Z,1023.36
2019-04-01T06:21:48.947Z,1023.29
2019-04-01T06:22:48.918Z,1023.32
2019-04-01T06:23:48.916Z,1023.32
2019-04-01T06:24:48.897Z,1023.35
2019-04-01T06:25:48.886Z,1023.39
2019-04-01T06:26:48.891Z,1023.39
2019-04-01T06:27:48.864Z,1023.33
2019-04-01T06:28:48.854Z,1023.39
2019-04-01T06:29:48.850Z,1023.41
2019-04-01T06:30:48.833Z,1023.44
2019-04-01T06:31:48.834Z,1023.41
2019-04-01T06:32:48.814Z,1023.44
2019-04-01T06:33:48.809Z,1023.40
2019-04-01T06:34:52.906Z,1023.44
2019-04-01T06:35:48.786Z,1023.46
2019-04-01T06:36:48.780Z,1023.49
2019-04-01T06:37:48.759Z,1023.46
2019-04-01T06:38:48.746Z,1023.52
2019-04-01T06:39:48.740Z,1023.53
2019-04-01T06:40:48.729Z,1023.48
2019-04-01T06:41:48.727Z,1023.50
2019-04-01T06:42:48.706Z,1023.55
2019-04-01T06:43:48.696Z,1023.53
2019-04-01T06:44:48.696Z,1023.52
2019-04-01T06:45:48.678Z,1023.56
2019-04-01T06:46:48.672Z,1023.58
2019-04-01T06:47:48.665Z,1023.57
2019-04-01T06:48:48.647Z,1023.62
2019-04-01T06:49:48.632Z,1023.62
2019-04-01T06:50:48.623Z,1023.61
2019-04-01T06:51:48.623Z,1023.55
2019-04-01T06:52:48.605Z,1023.66
2019-04-01T06:53:48.592Z,1023.60
2019-04-01T06:54:48.580Z,1023.53
2019-04-01T06:55:48.570Z,1023.55
2019-04-01T06:56:48.570Z,1023.55
2019-04-01T06:57:48.555Z,1023.56
2019-04-01T06:58:48.541Z,1023.59
2019-04-01T06:59:48.531Z,1023.58
2019-04-01T07:00:48.523Z,1023.58
2019-04-01T07:01:48.519Z,1023.57
2019-04-01T07:02:48.500Z,1023.61
2019-04-01T07:03:48.490Z,1023.65
2019-04-01T07:04:48.479Z,1023.65
2019-04-01T07:05:48.468Z,1023.64
2019-04-01T07:06:48.469Z,1023.64
2019-04-01T07:07:48.450Z,1023.69
2019-04-01T07:08:48.438Z,1023.71
2019-04-01T07:09:50.697Z,1023.64
2019-04-01T07:10:48.423Z,1023.68
2019-04-01T07:11:48.420Z,1023.73
2019-04-01T07:12:48.399Z,1023.71
2019-04-01T07:13:48.388Z,1023.64
2019-04-01T07:14:48.376Z,1023.69
2019-04-01T07:15:48.371Z,1023.65
2019-04-01T07:16:48.387Z,1023.64
2019-04-01T07:17:48.348Z,1023.64
2019-04-01T07:18:48.335Z,1023.61
2019-04-01T07:19:48.325Z,1023.62
2019-04-01T07:20:48.317Z,1023.63
2019-04-01T07:21:48.310Z,1023.59
2019-04-01T07:22:48.304Z,1023.55
2019-04-01T07:23:48.282Z,1023.50
2019-04-01T07:24:48.273Z,1023.54
2019-04-01T07:25:48.262Z,1023.61
2019-04-01T07:26:48.252Z,1023.60
2019-04-01T07:27:48.336Z,1023.64
2019-04-01T07:28:48.234Z,1023.67
2019-04-01T07:29:48.220Z,1023.61
2019-04-01T07:30:48.210Z,1023.54
2019-04-01T07:31:48.199Z,1023.60
2019-04-01T07:32:48.197Z,1023.68
2019-04-01T07:33:48.178Z,1023.66
2019-04-01T07:34:48.172Z,1023.63
2019-04-01T07:35:48.158Z,1023.60
2019-04-01T07:36:48.146Z,1023.59
2019-04-01T07:37:48.145Z,1023.59
2019-04-01T07:38:48.130Z,1023.57
2019-04-01T07:39:48.115Z,1023.62
2019-04-01T07:40:48.110Z,1023.54
2019-04-01T07:41:48.092Z,1023.58
2019-04-01T07:42:48.091Z,1023.54
2019-04-01T07:43:48.072Z,1023.52
2019-04-01T07:44:48.063Z,1023.60
2019-04-01T07:45:48.055Z,1023.52
2019-04-01T07:46:48.046Z,1023.51
2019-04-01T07:47:51.478Z,1023.55
2019-04-01T07:48:48.019Z,1023.55
2019-04-01T07:49:48.036Z,1023.57
2019-04-01T07:50:47.999Z,1023.55
2019-04-01T07:51:47.990Z,1023.55
2019-04-01T07:52:47.991Z,1023.59
2019-04-01T07:53:47.965Z,1023.54
2019-04-01T07:54:47.953Z,1023.56
2019-04-01T07:55:47.947Z,1023.53
2019-04-01T07:56:47.936Z,1023.55
2019-04-01T07:57:47.931Z,1023.68
2019-04-01T07:58:47.911Z,1023.66
2019-04-01T07:59:47.903Z,1023.60
2019-04-01T08:00:47.891Z,1023.64
2019-04-01T08:01:47.879Z,1023.62
2019-04-01T08:02:49.092Z,1023.60
2019-04-01T08:03:47.858Z,1023.62
2019-04-01T08:04:47.848Z,1023.64
2019-04-01T08:05:47.843Z,1023.68
2019-04-01T08:06:47.827Z,1023.67
2019-04-01T08:07:47.826Z,1023.65
2019-04-01T08:08:47.804Z,1023.72
2019-04-01T08:09:47.793Z,1023.71
2019-04-01T08:10:47.781Z,1023.70
2019-04-01T08:11:50.041Z,1023.68
2019-04-01T08:12:47.769Z,1023.72
2019-04-01T08:13:47.748Z,1023.68
2019-04-01T08:14:47.737Z,1023.62
2019-04-01T08:15:47.731Z,1023.71
2019-04-01T08:16:47.719Z,1023.73
2019-04-01T08:17:47.718Z,1023.70
2019-04-01T08:18:47.697Z,1023.78
2019-04-01T08:19:47.688Z,1023.70
2019-04-01T08:20:47.741Z,1023.67
2019-04-01T08:21:47.667Z,1023.80
2019-04-01T08:22:47.661Z,1023.70
2019-04-01T08:23:47.646Z,1023.70
2019-04-01T08:24:47.635Z,1023.68
2019-04-01T08:25:48.099Z,1023.65
2019-04-01T08:26:47.612Z,1023.66
2019-04-01T08:27:47.612Z,1023.69
2019-04-01T08:28:47.590Z,1023.66
2019-04-01T08:29:47.578Z,1023.64
2019-04-01T08:30:47.569Z,1023.67
2019-04-01T08:31:47.562Z,1023.66
2019-04-01T08:32:47.554Z,1023.66
2019-04-01T08:33:50.275Z,1023.65
2019-04-01T08:34:47.528Z,1023.62
2019-04-01T08:35:47.514Z,1023.62
2019-04-01T08:36:47.504Z,1023.68
2019-04-01T08:37:47.505Z,1023.66
2019-04-01T08:38:47.486Z,1023.62
2019-04-01T08:39:47.475Z,1023.68
2019-04-01T08:40:47.459Z,1023.63
2019-04-01T08:41:47.480Z,1023.68
2019-04-01T08:42:49.038Z,1023.62
2019-04-01T08:43:47.428Z,1023.64
2019-04-01T08:44:47.418Z,1023.58
2019-04-01T08:45:47.405Z,1023.63
2019-04-01T08:46:47.395Z,1023.60
2019-04-01T08:47:47.396Z,1023.71
2019-04-01T08:48:47.376Z,1023.68
2019-04-01T08:49:47.363Z,1023.65
2019-04-01T08:50:47.356Z,1023.64
2019-04-01T08:51:47.340Z,1023.60
2019-04-01T08:52:47.344Z,1023.65
2019-04-01T08:53:47.389Z,1023.63
2019-04-01T08:54:47.311Z,1023.63
2019-04-01T08:55:47.298Z,1023.60
2019-04-01T08:56:47.291Z,1023.57
2019-04-01T08:57:47.283Z,1023.59
2019-04-01T08:58:47.265Z,1023.63
2019-04-01T08:59:47.254Z,1023.58
2019-04-01T09:00:47.248Z,1023.61
2019-04-01T09:01:47.232Z,1023.63
2019-04-01T09:02:47.238Z,1023.59
2019-04-01T09:03:47.212Z,1023.54
2019-04-01T09:04:47.201Z,1023.54
2019-04-01T09:05:47.241Z,1023.57
2019-04-01T09:06:47.180Z,1023.54
2019-04-01T09:07:47.176Z,1023.58
2019-04-01T09:08:47.158Z,1023.60
2019-04-01T09:09:47.148Z,1023.59
2019-04-01T09:10:47.140Z,1023.56
2019-04-01T09:11:47.126Z,1023.52
2019-04-01T09:12:47.123Z,1023.52
2019-04-01T09:13:47.106Z,1023.52
2019-04-01T09:14:47.096Z,1023.45
2019-04-01T09:15:47.085Z,1023.47
2019-04-01T09:16:47.071Z,1023.51
2019-04-01T09:17:47.068Z,1023.52
2019-04-01T09:18:47.049Z,1023.47
2019-04-01T09:19:47.042Z,1023.52
2019-04-01T09:20:47.027Z,1023.49
2019-04-01T09:21:47.020Z,1023.54
2019-04-01T09:22:47.023Z,1023.50
2019-04-01T09:23:46.997Z,1023.50
2019-04-01T09:24:46.986Z,1023.45
2019-04-01T09:25:46.978Z,1023.41
2019-04-01T09:26:46.965Z,1023.47
2019-04-01T09:27:47.236Z,1023.48
2019-04-01T09:28:46.942Z,1023.40
2019-04-01T09:29:46.938Z,1023.46
2019-04-01T09:30:46.924Z,1023.46
2019-04-01T09:31:46.917Z,1023.43
2019-04-01T09:32:46.901Z,1023.36
2019-04-01T09:33:46.899Z,1023.44
2019-04-01T09:34:46.877Z,1023.41
2019-04-01T09:35:46.868Z,1023.38
2019-04-01T09:36:46.937Z,1023.35
2019-04-01T09:37:46.844Z,1023.38
2019-04-01T09:38:46.843Z,1023.42
2019-04-01T09:39:46.822Z,1023.43
2019-04-01T09:40:46.815Z,1023.38
2019-04-01T09:41:46.801Z,1023.34
2019-04-01T09:42:46.802Z,1023.37
2019-04-01T09:43:46.797Z,1023.29
2019-04-01T09:44:46.769Z,1023.21
2019-04-01T09:45:46.759Z,1023.25
2019-04-01T09:46:49.038Z,1023.25
2019-04-01T09:47:46.738Z,1023.28
2019-04-01T09:48:46.741Z,1023.24
2019-04-01T09:49:46.717Z,1023.20
2019-04-01T09:50:46.708Z,1023.22
2019-04-01T09:51:49.006Z,1023.20
2019-04-01T09:52:46.684Z,1023.17
2019-04-01T09:53:46.682Z,1023.18
2019-04-01T09:54:46.671Z,1023.21
2019-04-01T09:55:46.655Z,1023.21
2019-04-01T09:56:46.643Z,1023.18
2019-04-01T09:57:46.631Z,1023.12
2019-04-01T09:58:46.633Z,1023.11
2019-04-01T09:59:46.611Z,1023.09
2019-04-01T10:00:46.606Z,1023.13
2019-04-01T10:01:46.589Z,1023.08
2019-04-01T10:02:46.580Z,1023.04
2019-04-01T10:03:46.580Z,1023.05
2019-04-01T10:04:46.561Z,1023.01
2019-04-01T10:05:46.550Z,1023.01
2019-04-01T10:06:46.535Z,1023.04
2019-04-01T10:07:46.651Z,1023.00
2019-04-01T10:08:46.525Z,1023.02
2019-04-01T10:09:46.503Z,1023.02
2019-04-01T10:10:46.493Z,1022.99
2019-04-01T10:11:46.483Z,1022.95
2019-04-01T10:12:46.472Z,1022.99
2019-04-01T10:13:46.469Z,1022.95
2019-04-01T10:14:46.450Z,1022.94
2019-04-01T10:15:46.441Z,1022.94
2019-04-01T10:16:46.429Z,1022.93
2019-04-01T10:17:46.420Z,1022.96
2019-04-01T10:18:46.419Z,1022.94
2019-04-01T10:19:46.396Z,1022.90
2019-04-01T10:20:46.386Z,1022.93
2019-04-01T10:21:46.376Z,1022.80
2019-04-01T10:22:46.366Z,1022.88
2019-04-01T10:23:46.365Z,1022.79
2019-04-01T10:24:46.343Z,1022.91
2019-04-01T10:25:46.333Z,1022.83
2019-04-01T10:26:46.323Z,1022.82
2019-04-01T10:27:46.314Z,1022.83
2019-04-01T10:28:46.314Z,1022.81
2019-04-01T10:29:46.294Z,1022.84
2019-04-01T10:30:46.281Z,1022.83
2019-04-01T10:31:46.270Z,1022.85
2019-04-01T10:32:46.260Z,1022.82
2019-04-01T10:33:46.256Z,1022.80
2019-04-01T10:34:46.240Z,1022.80
2019-04-01T10:35:46.230Z,1022.74
2019-04-01T10:36:46.218Z,1022.77
2019-04-01T10:37:46.206Z,1022.78
2019-04-01T10:38:46.862Z,1022.75
2019-04-01T10:39:46.187Z,1022.70
2019-04-01T10:40:46.177Z,1022.71
2019-04-01T10:41:46.170Z,1022.71
2019-04-01T10:42:46.154Z,1022.70
2019-04-01T10:43:46.156Z,1022.65
2019-04-01T10:44:46.131Z,1022.60
2019-04-01T10:45:46.123Z,1022.61
2019-04-01T10:46:46.161Z,1022.53
2019-04-01T10:47:46.106Z,1022.62
2019-04-01T10:48:46.111Z,1022.52
2019-04-01T10:49:46.274Z,1022.59
2019-04-01T10:50:46.076Z,1022.50
2019-04-01T10:51:46.080Z,1022.51
2019-04-01T10:52:46.052Z,1022.53
2019-04-01T10:53:46.117Z,1022.48
2019-04-01T10:54:46.086Z,1022.52
2019-04-01T10:55:46.057Z,1022.53
2019-04-01T10:56:46.007Z,1022.52
2019-04-01T10:57:46.030Z,1022.51
2019-04-01T10:58:46.049Z,1022.53
2019-04-01T10:59:46.060Z,1022.50
2019-04-01T11:00:45.998Z,1022.47
2019-04-01T11:01:46.012Z,1022.53
2019-04-01T11:02:45.970Z,1022.49
2019-04-01T11:03:45.977Z,1022.48
2019-04-01T11:04:45.950Z,1022.41
2019-04-01T11:05:45.940Z,1022.45
2019-04-01T11:06:45.942Z,1022.50
2019-04-01T11:07:45.900Z,1022.43
2019-04-01T11:08:45.910Z,1022.41
2019-04-01T11:09:45.867Z,1022.41
2019-04-01T11:10:45.863Z,1022.39
2019-04-01T11:11:45.853Z,1022.38
2019-04-01T11:12:45.836Z,1022.35
2019-04-01T11:13:45.835Z,1022.30
2019-04-01T11:14:45.813Z,1022.31
2019-04-01T11:15:45.802Z,1022.32
2019-04-01T11:16:46.272Z,1022.33
2019-04-01T11:17:45.782Z,1022.33
2019-04-01T11:18:45.777Z,1022.33
2019-04-01T11:19:45.758Z,1022.23
2019-04-01T11:20:45.750Z,1022.24
2019-04-01T11:21:45.752Z,1022.25
2019-04-01T11:22:45.734Z,1022.22
2019-04-01T11:23:45.727Z,1022.17
2019-04-01T11:24:45.704Z,1022.16
2019-04-01T11:25:45.692Z,1022.24
2019-04-01T11:26:45.688Z,1022.14
2019-04-01T11:27:45.672Z,1022.14
2019-04-01T11:28:45.671Z,1022.18
2019-04-01T11:29:45.664Z,1022.15
2019-04-01T11:30:45.680Z,1022.17
2019-04-01T11:31:45.630Z,1022.20
2019-04-01T11:32:45.682Z,1022.12
2019-04-01T11:33:45.663Z,1022.15
2019-04-01T11:34:45.637Z,1022.11
2019-04-01T11:35:45.985Z,1022.20
2019-04-01T11:36:45.577Z,1022.16
2019-04-01T11:37:45.565Z,1022.11
2019-04-01T11:38:45.609Z,1022.11
2019-04-01T11:39:45.542Z,1022.05
2019-04-01T11:40:45.548Z,1022.03
2019-04-01T11:41:45.518Z,1021.98
2019-04-01T11:42:45.557Z,1022.03
2019-04-01T11:43:45.551Z,1022.01
2019-04-01T11:44:45.535Z,1021.97
2019-04-01T11:45:45.482Z,1021.95
2019-04-01T11:46:45.495Z,1021.93
2019-04-01T11:47:45.521Z,1021.95
2019-04-01T11:48:45.510Z,1021.99
2019-04-01T11:49:45.465Z,1022.04
2019-04-01T11:50:47.729Z,1021.98
2019-04-01T11:51:45.450Z,1021.88
2019-04-01T11:52:45.456Z,1021.85
2019-04-01T11:53:45.385Z,1021.87
2019-04-01T11:54:45.383Z,1021.93
2019-04-01T11:55:45.364Z,1021.87
2019-04-01T11:56:45.356Z,1021.85
2019-04-01T11:57:45.343Z,1021.78
2019-04-01T11:58:45.331Z,1021.88
2019-04-01T11:59:45.348Z,1021.85
2019-04-01T12:00:45.309Z,1021.82
2019-04-01T12:01:45.296Z,1021.89
2019-04-01T12:02:46.079Z,1021.82
2019-04-01T12:03:45.276Z,1021.80
2019-04-01T12:04:45.278Z,1021.78
2019-04-01T12:05:45.254Z,1021.81
2019-04-01T12:06:45.245Z,1021.80
2019-04-01T12:07:45.251Z,1021.77
2019-04-01T12:08:45.222Z,1021.76
2019-04-01T12:09:45.226Z,1021.75
2019-04-01T12:10:45.198Z,1021.67
2019-04-01T12:11:45.188Z,1021.64
2019-04-01T12:12:45.176Z,1021.69
2019-04-01T12:13:45.165Z,1021.61
2019-04-01T12:14:45.168Z,1021.66
2019-04-01T12:15:45.144Z,1021.63
2019-04-01T12:16:45.131Z,1021.61
2019-04-01T12:17:45.122Z,1021.64
2019-04-01T12:18:45.115Z,1021.58
2019-04-01T12:19:45.115Z,1021.57
2019-04-01T12:20:45.087Z,1021.58
2019-04-01T12:21:45.076Z,1021.52
2019-04-01T12:22:45.914Z,1021.52
2019-04-01T12:23:45.055Z,1021.55
2019-04-01T12:24:45.051Z,1021.57
2019-04-01T12:25:45.036Z,1021.50
2019-04-01T12:26:45.021Z,1021.50
2019-04-01T12:27:45.349Z,1021.48
2019-04-01T12:28:44.998Z,1021.57
2019-04-01T12:29:48.146Z,1021.46
2019-04-01T12:30:44.984Z,1021.49
2019-04-01T12:31:44.966Z,1021.46
2019-04-01T12:32:45.004Z,1021.45
2019-04-01T12:33:44.950Z,1021.42
2019-04-01T12:34:45.909Z,1021.44
2019-04-01T12:35:44.923Z,1021.49
2019-04-01T12:36:44.914Z,1021.46
2019-04-01T12:37:45.769Z,1021.45
2019-04-01T12:38:44.892Z,1021.45
2019-04-01T12:39:44.888Z,1021.41
2019-04-01T12:40:44.867Z,1021.31
2019-04-01T12:41:44.858Z,1021.34
2019-04-01T12:42:46.411Z,1021.30
2019-04-01T12:43:44.842Z,1021.37
2019-04-01T12:44:44.831Z,1021.29
2019-04-01T12:45:44.812Z,1021.30
2019-04-01T12:46:44.804Z,1021.33
2019-04-01T12:47:44.792Z,1021.23
2019-04-01T12:48:44.788Z,1021.26
2019-04-01T12:49:44.780Z,1021.30
2019-04-01T12:50:44.846Z,1021.28
2019-04-01T12:51:44.748Z,1021.25
2019-04-01T12:52:44.738Z,1021.22
2019-04-01T12:53:45.187Z,1021.25
2019-04-01T12:54:44.961Z,1021.17
2019-04-01T12:55:45.073Z,1021.18
2019-04-01T12:56:44.692Z,1021.14
2019-04-01T12:57:48.178Z,1021.09
2019-04-01T12:58:44.675Z,1021.06
2019-04-01T12:59:45.999Z,1021.03
2019-04-01T13:00:44.648Z,1021.00
2019-04-01T13:01:44.642Z,1020.99
2019-04-01T13:02:44.626Z,1020.97
2019-04-01T13:03:44.614Z,1020.98
2019-04-01T13:04:44.617Z,1020.94
2019-04-01T13:05:44.595Z,1020.96
2019-04-01T13:06:44.583Z,1020.94
2019-04-01T13:07:44.570Z,1020.94
2019-04-01T13:08:44.559Z,1020.95
2019-04-01T13:09:44.559Z,1020.91
2019-04-01T13:10:44.539Z,1020.91
2019-04-01T13:11:44.533Z,1020.84
2019-04-01T13:12:44.518Z,1020.84
2019-04-01T13:13:44.783Z,1020.78
2019-04-01T13:14:44.502Z,1020.71
2019-04-01T13:15:44.489Z,1020.77
2019-04-01T13:16:44.472Z,1020.76
2019-04-01T13:17:44.461Z,1020.69
2019-04-01T13:18:44.451Z,1020.71
2019-04-01T13:19:45.042Z,1020.67
2019-04-01T13:20:44.430Z,1020.71
2019-04-01T13:21:44.421Z,1020.66
2019-04-01T13:22:44.490Z,1020.64
2019-04-01T13:23:44.394Z,1020.56
2019-04-01T13:24:44.393Z,1020.57
2019-04-01T13:25:44.376Z,1020.41
2019-04-01T13:26:44.363Z,1020.49
2019-04-01T13:27:44.353Z,1020.45
2019-04-01T13:28:44.348Z,1020.49
2019-04-01T13:29:44.371Z,1020.47
2019-04-01T13:30:44.322Z,1020.41
2019-04-01T13:31:44.312Z,1020.37
2019-04-01T13:32:44.297Z,1020.40
2019-04-01T13:33:44.955Z,1020.41
2019-04-01T13:34:44.279Z,1020.42
2019-04-01T13:35:44.275Z,1020.39
2019-04-01T13:36:44.254Z,1020.40
2019-04-01T13:37:44.242Z,1020.34
2019-04-01T13:38:44.419Z,1020.35
2019-04-01T13:39:44.220Z,1020.35
2019-04-01T13:40:44.708Z,1020.28
2019-04-01T13:41:44.419Z,1020.30
2019-04-01T13:42:44.205Z,1020.31
2019-04-01T13:43:44.177Z,1020.33
2019-04-01T13:44:44.166Z,1020.23
2019-04-01T13:45:44.164Z,1020.19
2019-04-01T13:46:44.146Z,1020.13
2019-04-01T13:47:44.133Z,1020.19
2019-04-01T13:48:56.912Z,1020.17
2019-04-01T13:49:45.117Z,1020.12
2019-04-01T13:50:44.112Z,1020.13
2019-04-01T13:51:44.095Z,1020.15
2019-04-01T13:52:44.078Z,1020.12
2019-04-01T13:53:44.068Z,1020.12
2019-04-01T13:54:44.059Z,1020.17
2019-04-01T13:55:44.056Z,1020.19
2019-04-01T13:56:44.035Z,1020.17
2019-04-01T13:57:44.032Z,1020.13
2019-04-01T13:58:44.014Z,1020.10
2019-04-01T13:59:49.332Z,1020.05
2019-04-01T14:00:45.004Z,1020.03
2019-04-01T14:01:43.981Z,1020.07
2019-04-01T14:02:43.975Z,1020.02
2019-04-01T14:03:43.969Z,1020.08
2019-04-01T14:04:43.966Z,1020.02
2019-04-01T14:05:43.948Z,1019.95
2019-04-01T14:06:43.927Z,1019.94
2019-04-01T14:07:43.916Z,1019.95
2019-04-01T14:08:43.905Z,1020.02
2019-04-01T14:09:43.896Z,1019.97
2019-04-01T14:10:43.895Z,1019.92
2019-04-01T14:11:43.937Z,1019.87
2019-04-01T14:12:43.864Z,1019.88
2019-04-01T14:13:43.852Z,1019.86
2019-04-01T14:14:43.844Z,1019.84
2019-04-01T14:15:43.842Z,1019.85
2019-04-01T14:16:43.825Z,1019.85
2019-04-01T14:17:43.809Z,1019.83
2019-04-01T14:18:43.801Z,1019.74
2019-04-01T14:19:43.787Z,1019.77
2019-04-01T14:20:43.784Z,1019.72
2019-04-01T14:21:43.764Z,1019.70
2019-04-01T14:22:44.497Z,1019.69
2019-04-01T14:23:43.743Z,1019.70
2019-04-01T14:24:45.247Z,1019.76
2019-04-01T14:25:43.733Z,1019.64
2019-04-01T14:26:43.715Z,1019.62
2019-04-01T14:27:43.698Z,1019.65
2019-04-01T14:28:43.689Z,1019.57
2019-04-01T14:29:43.680Z,1019.53
2019-04-01T14:30:43.680Z,1019.53
2019-04-01T14:31:43.662Z,1019.49
2019-04-01T14:32:43.644Z,1019.60
2019-04-01T14:33:43.634Z,1019.55
2019-04-01T14:34:43.627Z,1019.55
2019-04-01T14:35:45.316Z,1019.51
2019-04-01T14:36:43.648Z,1019.47
2019-04-01T14:37:43.590Z,1019.43
2019-04-01T14:38:43.580Z,1019.42
2019-04-01T14:39:43.572Z,1019.39
2019-04-01T14:40:43.570Z,1019.44
2019-04-01T14:41:43.548Z,1019.34
2019-04-01T14:42:46.193Z,1019.36
2019-04-01T14:43:43.529Z,1019.41
2019-04-01T14:44:43.515Z,1019.33
2019-04-01T14:45:43.515Z,1019.23
2019-04-01T14:46:43.495Z,1019.24
2019-04-01T14:47:56.709Z,1019.27
2019-04-01T14:48:44.469Z,1019.27
2019-04-01T14:49:43.464Z,1019.23
2019-04-01T14:50:43.459Z,1019.28
2019-04-01T14:51:43.458Z,1019.25
2019-04-01T14:52:43.428Z,1019.19
2019-04-01T14:53:43.421Z,1019.22
2019-04-01T14:54:43.409Z,1019.16
2019-04-01T14:55:43.409Z,1019.15
2019-04-01T14:56:43.383Z,1019.12
2019-04-01T14:57:43.374Z,1019.12
2019-04-01T14:58:43.362Z,1019.10
2019-04-01T14:59:43.349Z,1019.11
2019-04-01T15:00:43.349Z,1019.04
2019-04-01T15:01:43.332Z,1019.05
2019-04-01T15:02:43.318Z,1019.11
2019-04-01T15:03:43.306Z,1019.07
2019-04-01T15:04:43.298Z,1019.03
2019-04-01T15:05:43.294Z,1019.03
2019-04-01T15:06:43.275Z,1018.97
2019-04-01T15:07:43.269Z,1018.97
2019-04-01T15:08:43.252Z,1018.96
2019-04-01T15:09:43.243Z,1018.96
2019-04-01T15:10:44.047Z,1018.90
2019-04-01T15:11:43.219Z,1018.87
2019-04-01T15:12:43.227Z,1018.89
2019-04-01T15:13:43.199Z,1018.87
2019-04-01T15:14:43.194Z,1018.92
2019-04-01T15:15:43.183Z,1018.90
2019-04-01T15:16:43.165Z,1018.91
2019-04-01T15:17:43.159Z,1018.92
2019-04-01T15:18:43.149Z,1018.93
2019-04-01T15:19:43.130Z,1018.88
2019-04-01T15:20:43.145Z,1018.88
2019-04-01T15:21:43.111Z,1018.85
2019-04-01T15:22:43.106Z,1018.87
2019-04-01T15:23:43.089Z,1018.85
2019-04-01T15:24:43.079Z,1018.80
2019-04-01T15:25:43.068Z,1018.83
2019-04-01T15:26:43.068Z,1018.74
2019-04-01T15:27:43.047Z,1018.79
2019-04-01T15:28:43.032Z,1018.72
2019-04-01T15:29:43.023Z,1018.73
2019-04-01T15:30:43.010Z,1018.70
2019-04-01T15:31:43.009Z,1018.72
2019-04-01T15:32:42.990Z,1018.74
2019-04-01T15:33:42.979Z,1018.64
2019-04-01T15:34:42.965Z,1018.64
2019-04-01T15:35:42.961Z,1018.66
2019-04-01T15:36:42.960Z,1018.71
2019-04-01T15:37:42.935Z,1018.61
2019-04-01T15:38:43.041Z,1018.67
2019-04-01T15:39:42.915Z,1018.63
2019-04-01T15:40:42.904Z,1018.74
2019-04-01T15:41:42.907Z,1018.71
2019-04-01T15:42:43.225Z,1018.65
2019-04-01T15:43:42.869Z,1018.66
2019-04-01T15:44:42.856Z,1018.61
2019-04-01T15:45:42.846Z,1018.57
2019-04-01T15:46:42.845Z,1018.59
2019-04-01T15:47:42.825Z,1018.59
2019-04-01T15:48:42.812Z,1018.59
2019-04-01T15:49:42.802Z,1018.50
2019-04-01T15:50:42.791Z,1018.51
2019-04-01T15:51:42.791Z,1018.53
2019-04-01T15:52:42.773Z,1018.49
2019-04-01T15:53:42.759Z,1018.46
2019-04-01T15:54:42.746Z,1018.42
2019-04-01T15:55:42.736Z,1018.43
2019-04-01T15:56:42.732Z,1018.42
2019-04-01T15:57:42.713Z,1018.42